createdAt,value
2017-05-05T04:59:09.582Z,3.65
2017-05-05T05:01:36.357Z,4.44
2017-05-05T05:04:03.155Z,3.28
2017-05-05T05:06:29.965Z,2.12
2017-05-05T05:08:56.764Z,5.88
2017-05-05T05:11:23.556Z,1.60
2017-05-05T05:13:50.388Z,3.58
2017-05-05T05:16:17.180Z,4.92
2017-05-05T05:18:43.959Z,7.52
2017-05-05T05:21:10.780Z,7.02
2017-05-05T05:23:37.650Z,6.06
2017-05-05T05:26:04.449Z,7.76
2017-05-05T05:28:31.304Z,3.62
2017-05-05T05:30:58.086Z,1.70
2017-05-05T05:33:24.917Z,5.44
2017-05-05T05:35:51.776Z,4.24
2017-05-05T05:38:18.597Z,2.86
2017-05-05T05:40:45.472Z,3.46
2017-05-05T05:43:21.170Z,5.52
2017-05-05T05:45:56.634Z,3.50
2017-05-05T05:48:23.652Z,4.00
2017-05-05T05:50:50.442Z,3.12
2017-05-05T05:53:17.279Z,3.00
2017-05-05T05:55:44.118Z,12.76
2017-05-05T05:58:10.928Z,1.38
2017-05-05T06:00:37.694Z,2.44
2017-05-05T06:03:04.553Z,2.16
2017-05-05T06:05:31.505Z,4.30
2017-05-05T06:07:58.279Z,3.60
2017-05-05T06:10:25.151Z,11.50
2017-05-05T06:12:51.994Z,7.34
2017-05-05T06:15:18.800Z,5.06
2017-05-05T06:17:45.650Z,3.18
2017-05-05T06:20:12.458Z,5.62
2017-05-05T06:22:39.226Z,3.86
2017-05-05T06:25:06.054Z,5.94
2017-05-05T06:27:32.838Z,3.00
2017-05-05T06:29:59.646Z,4.12
2017-05-05T06:32:26.549Z,3.86
2017-05-05T06:34:53.416Z,8.76
2017-05-05T06:37:20.247Z,6.28
2017-05-05T06:39:47.117Z,3.00
2017-05-05T06:42:14.011Z,2.38
2017-05-05T06:44:40.875Z,4.42
2017-05-05T06:47:07.747Z,4.12
2017-05-05T06:49:34.538Z,5.06
2017-05-05T06:52:01.383Z,5.14
2017-05-05T06:54:28.283Z,6.58
2017-05-05T06:56:55.121Z,6.52
2017-05-05T06:59:21.973Z,7.06
2017-05-05T07:01:48.779Z,2.54
2017-05-05T07:04:15.553Z,1.68
2017-05-05T07:06:42.310Z,1.60
2017-05-05T07:09:09.153Z,3.32
2017-05-05T07:11:35.978Z,1.82
2017-05-05T07:14:02.823Z,2.80
2017-05-05T07:16:29.739Z,4.18
2017-05-05T07:18:56.575Z,3.66
2017-05-05T07:21:23.371Z,3.12
2017-05-05T07:23:50.184Z,2.88
2017-05-05T07:26:16.982Z,5.72
2017-05-05T07:28:43.858Z,2.48
2017-05-05T07:31:10.679Z,1.92
2017-05-05T07:33:37.466Z,4.70
2017-05-05T07:36:04.273Z,3.46
2017-05-05T07:38:31.099Z,8.88
2017-05-05T07:40:57.870Z,9.10
2017-05-05T07:43:24.672Z,2.64
2017-05-05T07:45:51.531Z,4.90
2017-05-05T07:48:18.357Z,5.02
2017-05-05T07:50:45.194Z,7.00
2017-05-05T07:53:12.021Z,4.64
2017-05-05T07:55:39.278Z,3.12
2017-05-05T07:58:06.090Z,5.36
2017-05-05T08:00:33.006Z,3.94
2017-05-05T08:02:59.816Z,6.16
2017-05-05T08:05:26.590Z,2.14
2017-05-05T08:07:53.415Z,2.30
2017-05-05T08:10:20.246Z,4.16
2017-05-05T08:12:47.089Z,3.02
2017-05-05T08:15:13.927Z,4.42
2017-05-05T08:17:40.715Z,5.56
2017-05-05T08:20:07.515Z,8.14
2017-05-05T08:22:34.410Z,5.38
2017-05-05T08:25:01.216Z,10.22
2017-05-05T08:27:27.979Z,5.92
2017-05-05T08:29:54.829Z,3.46
2017-05-05T08:32:21.626Z,1.86
2017-05-05T08:34:48.455Z,2.72
2017-05-05T08:37:15.252Z,16.04
2017-05-05T08:39:42.051Z,8.20
2017-05-05T08:42:08.850Z,6.80
2017-05-05T08:44:35.644Z,4.30
2017-05-05T08:47:02.438Z,3.40
2017-05-05T08:49:29.238Z,4.90
2017-05-05T08:51:56.058Z,4.84
2017-05-05T08:54:22.843Z,12.04
2017-05-05T08:56:49.644Z,4.18
2017-05-05T08:59:16.470Z,5.36
2017-05-05T09:01:43.332Z,6.08
2017-05-05T09:04:10.112Z,6.42
2017-05-05T09:06:37.006Z,6.22
2017-05-05T09:09:03.834Z,3.94
2017-05-05T09:11:30.619Z,10.52
2017-05-05T09:13:57.540Z,10.68
2017-05-05T09:16:24.324Z,6.16
2017-05-05T09:18:51.107Z,6.08
2017-05-05T09:21:17.933Z,3.36
2017-05-05T09:23:44.743Z,1.88
2017-05-05T09:26:11.511Z,9.60
2017-05-05T09:28:38.318Z,5.40
2017-05-05T09:31:05.153Z,2.76
2017-05-05T09:33:31.981Z,4.62
2017-05-05T09:35:58.788Z,4.88
2017-05-05T09:38:25.636Z,3.66
2017-05-05T09:40:52.400Z,4.62
2017-05-05T09:43:19.218Z,5.82
2017-05-05T09:45:45.977Z,9.40
2017-05-05T09:48:12.788Z,8.22
2017-05-05T09:50:39.608Z,5.46
2017-05-05T09:53:06.428Z,4.40
2017-05-05T09:55:33.228Z,6.04
2017-05-05T09:58:00.068Z,6.62
2017-05-05T10:00:26.868Z,11.82
2017-05-05T10:02:53.655Z,4.16
2017-05-05T10:05:20.468Z,4.90
2017-05-05T10:07:47.261Z,5.86
2017-05-05T10:10:14.048Z,5.68
2017-05-05T10:12:40.880Z,6.74
2017-05-05T10:15:07.706Z,4.70
2017-05-05T10:17:34.582Z,5.62
2017-05-05T10:20:01.465Z,4.88
2017-05-05T10:22:28.252Z,4.78
2017-05-05T10:24:55.056Z,2.12
2017-05-05T10:27:21.955Z,2.00
2017-05-05T10:29:48.734Z,5.60
2017-05-05T10:32:15.520Z,2.56
2017-05-05T10:34:42.340Z,9.28
2017-05-05T10:37:09.137Z,4.46
2017-05-05T10:39:35.919Z,3.88
2017-05-05T10:42:02.737Z,3.90
2017-05-05T10:44:29.516Z,7.88
2017-05-05T10:46:56.299Z,3.10
2017-05-05T10:49:23.162Z,3.66
2017-05-05T10:51:49.947Z,6.64
2017-05-05T10:54:16.743Z,6.20
2017-05-05T10:56:43.555Z,4.32
2017-05-05T10:59:10.351Z,3.24
2017-05-05T11:01:37.127Z,6.28
2017-05-05T11:04:03.948Z,5.00
2017-05-05T11:06:30.795Z,6.94
2017-05-05T11:08:57.653Z,3.90
2017-05-05T11:11:24.526Z,4.48
2017-05-05T11:13:51.308Z,5.38
2017-05-05T11:16:18.223Z,4.60
2017-05-05T11:18:45.046Z,2.84
2017-05-05T11:21:12.049Z,8.22
2017-05-05T11:23:38.842Z,7.46
2017-05-05T11:26:05.675Z,2.48
2017-05-05T11:28:32.449Z,5.96
2017-05-05T11:30:59.223Z,3.76
2017-05-05T11:33:26.176Z,9.38
2017-05-05T11:35:52.969Z,4.46
2017-05-05T11:38:19.830Z,7.48
2017-05-05T11:40:46.629Z,6.38
2017-05-05T11:43:13.437Z,5.70
2017-05-05T11:45:40.324Z,2.70
2017-05-05T11:48:07.159Z,4.22
2017-05-05T11:50:34.082Z,2.88
2017-05-05T11:53:01.166Z,2.16
2017-05-05T11:55:28.170Z,4.68
2017-05-05T11:57:55.011Z,12.90
2017-05-05T12:00:22.214Z,3.86
2017-05-05T12:02:49.196Z,5.02
2017-05-05T12:05:16.026Z,4.34
2017-05-05T12:07:42.846Z,1.40
2017-05-05T12:10:09.664Z,5.10
2017-05-05T12:12:36.469Z,3.42
2017-05-05T12:15:03.235Z,7.18
2017-05-05T12:17:30.041Z,3.32
2017-05-05T12:19:56.834Z,5.56
2017-05-05T12:22:23.620Z,6.54
2017-05-05T12:24:50.471Z,13.84
2017-05-05T12:27:17.269Z,8.66
2017-05-05T12:29:44.038Z,3.70
2017-05-05T12:32:10.893Z,3.24
2017-05-05T12:34:37.676Z,4.00
2017-05-05T12:37:04.468Z,5.32
2017-05-05T12:39:31.345Z,9.80
2017-05-05T12:41:58.138Z,8.62
2017-05-05T12:44:24.918Z,4.42
2017-05-05T12:46:51.811Z,6.26
2017-05-05T12:49:18.613Z,17.00
2017-05-05T12:51:45.376Z,5.22
2017-05-05T12:54:12.239Z,9.40
2017-05-05T12:56:39.112Z,10.10
2017-05-05T12:59:05.929Z,7.26
2017-05-05T13:01:32.779Z,7.06
2017-05-05T13:03:59.586Z,8.36
2017-05-05T13:06:26.426Z,12.18
2017-05-05T13:08:53.261Z,4.00
2017-05-05T13:11:20.057Z,6.42
2017-05-05T13:13:46.884Z,4.30
2017-05-05T13:16:13.863Z,5.04
2017-05-05T13:18:40.644Z,4.46
2017-05-05T13:21:07.409Z,7.18
2017-05-05T13:23:34.233Z,5.28
2017-05-05T13:26:01.150Z,8.02
2017-05-05T13:28:28.149Z,7.10
2017-05-05T13:30:55.095Z,7.38
2017-05-05T13:33:21.926Z,9.14
2017-05-05T13:35:48.758Z,6.52
2017-05-05T13:38:15.730Z,9.06
2017-05-05T13:40:42.594Z,3.72
2017-05-05T13:43:09.494Z,12.12
2017-05-05T13:45:36.400Z,10.40
2017-05-05T13:48:03.210Z,6.34
2017-05-05T13:50:30.027Z,6.26
2017-05-05T13:52:56.858Z,7.10
2017-05-05T13:55:23.726Z,5.26
2017-05-05T13:57:50.561Z,7.70
2017-05-05T14:00:17.493Z,9.16
2017-05-05T14:02:44.314Z,6.84
2017-05-05T14:05:11.107Z,5.58
2017-05-05T14:07:38.109Z,3.98
2017-05-05T14:10:04.897Z,10.32
2017-05-05T14:12:31.703Z,7.42
2017-05-05T14:14:58.609Z,3.08
2017-05-05T14:17:25.514Z,6.50
2017-05-05T14:19:52.309Z,11.72
2017-05-05T14:22:19.240Z,7.96
2017-05-05T14:24:46.101Z,5.88
2017-05-05T14:27:12.953Z,3.90
2017-05-05T14:29:39.809Z,7.38
2017-05-05T14:32:06.642Z,4.38
2017-05-05T14:34:33.452Z,8.16
2017-05-05T14:37:00.274Z,7.08
2017-05-05T14:39:27.083Z,4.18
2017-05-05T14:41:53.999Z,6.66
2017-05-05T14:44:20.827Z,5.82
2017-05-05T14:46:47.659Z,5.58
2017-05-05T14:49:14.454Z,3.46
2017-05-05T14:51:41.239Z,4.02
2017-05-05T14:54:08.049Z,9.62
2017-05-05T14:56:35.004Z,4.88
2017-05-05T14:59:01.821Z,10.54
2017-05-05T15:01:28.595Z,6.64
2017-05-05T15:03:55.442Z,6.24
2017-05-05T15:06:22.252Z,5.20
2017-05-05T15:08:49.032Z,4.16
2017-05-05T15:11:15.853Z,3.92
2017-05-05T15:13:42.784Z,6.76
2017-05-05T15:16:09.758Z,5.46
2017-05-05T15:18:36.596Z,7.94
2017-05-05T15:21:03.422Z,7.42
2017-05-05T15:23:30.219Z,2.80
2017-05-05T15:25:57.021Z,7.32
2017-05-05T15:28:23.818Z,5.64
2017-05-05T15:30:50.602Z,6.48
2017-05-05T15:33:17.389Z,4.88
2017-05-05T15:35:44.206Z,5.68
2017-05-05T15:38:11.034Z,7.36
2017-05-05T15:40:37.849Z,9.82
2017-05-05T15:43:04.731Z,5.14
2017-05-05T15:45:31.551Z,10.54
2017-05-05T15:47:58.376Z,7.86
2017-05-05T15:50:25.342Z,7.56
2017-05-05T15:52:52.150Z,7.04
2017-05-05T15:55:18.976Z,4.42
2017-05-05T15:57:45.812Z,8.60
2017-05-05T16:00:12.609Z,6.64
2017-05-05T16:02:39.495Z,6.84
2017-05-05T16:05:06.480Z,6.12
2017-05-05T16:07:33.420Z,4.78
2017-05-05T16:10:01.396Z,6.68
2017-05-05T16:12:28.224Z,4.16
2017-05-05T16:14:55.044Z,6.54
2017-05-05T16:17:21.950Z,7.76
2017-05-05T16:19:49.136Z,11.74
2017-05-05T16:22:15.998Z,7.72
2017-05-05T16:24:42.843Z,6.60
2017-05-05T16:27:09.652Z,6.18
2017-05-05T16:29:36.465Z,5.18
2017-05-05T16:32:03.367Z,7.04
2017-05-05T16:34:30.209Z,13.50
2017-05-05T16:36:56.988Z,5.68
2017-05-05T16:39:23.818Z,8.64
2017-05-05T16:41:50.790Z,13.28
2017-05-05T16:44:17.912Z,11.22
2017-05-05T16:46:44.687Z,8.14
2017-05-05T16:49:11.564Z,7.12
2017-05-05T16:51:38.421Z,11.10
2017-05-05T16:54:05.542Z,8.96
2017-05-05T16:56:32.504Z,6.94
2017-05-05T16:58:59.622Z,15.78
2017-05-05T17:01:26.435Z,14.30
2017-05-05T17:03:53.332Z,11.26
2017-05-05T17:06:20.177Z,7.20
2017-05-05T17:08:46.980Z,10.24
2017-05-05T17:11:13.903Z,10.88
2017-05-05T17:13:40.783Z,15.90
2017-05-05T17:16:07.633Z,9.26
2017-05-05T17:18:34.478Z,9.30
2017-05-05T17:21:01.321Z,13.96
2017-05-05T17:23:28.369Z,9.54
2017-05-05T17:25:55.239Z,11.90
2017-05-05T17:28:22.025Z,16.62
2017-05-05T17:30:48.835Z,10.64
2017-05-05T17:33:15.683Z,10.82
2017-05-05T17:35:42.520Z,12.96
2017-05-05T17:38:09.373Z,8.70
2017-05-05T17:40:36.293Z,12.96
2017-05-05T17:43:03.130Z,6.78
2017-05-05T17:45:29.977Z,12.46
2017-05-05T17:47:57.107Z,10.94
2017-05-05T17:50:23.938Z,13.08
2017-05-05T17:52:50.813Z,10.52
2017-05-05T17:55:17.644Z,15.62
2017-05-05T17:57:44.978Z,9.90
2017-05-05T18:00:11.780Z,13.60
2017-05-05T18:02:38.680Z,11.76
2017-05-05T18:05:05.540Z,17.10
2017-05-05T18:07:32.352Z,11.56
2017-05-05T18:09:59.208Z,17.44
2017-05-05T18:12:26.073Z,18.78
2017-05-05T18:14:52.979Z,11.62
2017-05-05T18:17:20.072Z,7.98
2017-05-05T18:19:46.973Z,11.92
2017-05-05T18:22:13.810Z,7.64
2017-05-05T18:24:40.727Z,15.16
2017-05-05T18:27:07.602Z,14.74
2017-05-05T18:29:34.498Z,11.98
2017-05-05T18:32:01.442Z,10.62
2017-05-05T18:34:28.751Z,16.00
2017-05-05T18:36:55.669Z,18.00
2017-05-05T18:39:22.629Z,9.26
2017-05-05T18:41:49.561Z,19.92
2017-05-05T18:44:16.469Z,12.44
2017-05-05T18:46:43.394Z,10.36
2017-05-05T18:49:10.258Z,11.98
2017-05-05T18:51:37.237Z,14.64
2017-05-05T18:54:04.127Z,11.72
2017-05-05T18:56:30.980Z,17.20
2017-05-05T18:58:58.557Z,15.16
2017-05-05T19:01:25.430Z,20.90
2017-05-05T19:03:53.202Z,11.18
2017-05-05T19:06:20.041Z,14.96
2017-05-05T19:08:47.055Z,20.76
2017-05-05T19:11:13.953Z,13.42
2017-05-05T19:13:40.874Z,19.18
2017-05-05T19:16:07.871Z,12.08
2017-05-05T19:18:34.879Z,17.14
2017-05-05T19:21:01.701Z,11.20
2017-05-05T19:23:28.906Z,20.04
2017-05-05T19:25:55.790Z,11.94
2017-05-05T19:28:22.620Z,15.96
2017-05-05T19:30:49.492Z,22.06
2017-05-05T19:33:16.298Z,13.90
2017-05-05T19:35:43.184Z,19.70
2017-05-05T19:38:10.043Z,17.18
2017-05-05T19:40:37.395Z,17.76
2017-05-05T19:43:04.354Z,16.54
2017-05-05T19:45:31.266Z,14.86
2017-05-05T19:47:58.486Z,14.20
2017-05-05T19:50:25.339Z,16.78
2017-05-05T19:52:52.230Z,13.18
2017-05-05T19:55:19.056Z,16.52
2017-05-05T19:57:45.868Z,14.98
2017-05-05T20:00:12.957Z,28.22
2017-05-05T20:02:40.602Z,17.34
2017-05-05T20:05:07.723Z,12.96
2017-05-05T20:07:34.739Z,14.62
2017-05-05T20:10:01.805Z,21.48
2017-05-05T20:12:28.875Z,12.30
2017-05-05T20:14:56.002Z,15.38
2017-05-05T20:17:22.887Z,22.66
2017-05-05T20:19:49.884Z,19.36
2017-05-05T20:22:16.845Z,13.54
2017-05-05T20:24:43.749Z,17.46
2017-05-05T20:27:10.581Z,14.06
2017-05-05T20:29:37.430Z,19.44
2017-05-05T20:32:04.520Z,29.22
2017-05-05T20:34:31.385Z,22.66
2017-05-05T20:36:58.283Z,23.14
2017-05-05T20:39:25.156Z,21.82
2017-05-05T20:41:52.012Z,19.90
2017-05-05T20:44:19.023Z,26.98
2017-05-05T20:46:46.050Z,21.78
2017-05-05T20:49:12.910Z,22.84
2017-05-05T20:51:39.823Z,34.80
2017-05-05T20:54:06.634Z,22.14
2017-05-05T20:56:33.689Z,26.80
2017-05-05T20:59:00.546Z,24.04
2017-05-05T21:01:27.459Z,19.98
2017-05-05T21:03:54.338Z,20.18
2017-05-05T21:06:21.284Z,24.86
2017-05-05T21:08:48.345Z,31.02
2017-05-05T21:11:15.150Z,26.04
2017-05-05T21:13:41.998Z,16.52
2017-05-05T21:16:08.918Z,23.12
2017-05-05T21:18:36.101Z,30.20
2017-05-05T21:21:02.938Z,32.12
2017-05-05T21:23:29.732Z,32.80
2017-05-05T21:25:56.580Z,27.28
2017-05-05T21:28:23.413Z,22.00
2017-05-05T21:30:50.298Z,21.96
2017-05-05T21:33:17.133Z,26.16
2017-05-05T21:35:44.031Z,30.34
2017-05-05T21:38:10.843Z,22.58
2017-05-05T21:40:37.635Z,28.32
2017-05-05T21:43:04.501Z,29.70
2017-05-05T21:45:31.317Z,36.66
2017-05-05T21:47:58.123Z,29.90
2017-05-05T21:50:24.978Z,33.22
2017-05-05T21:52:51.775Z,34.92
2017-05-05T21:55:18.596Z,28.48
2017-05-05T21:57:45.460Z,31.54
2017-05-05T22:00:12.275Z,32.84
2017-05-05T22:02:39.135Z,30.16
2017-05-05T22:05:06.034Z,37.56
2017-05-05T22:07:32.973Z,41.46
2017-05-05T22:09:59.755Z,37.64
2017-05-05T22:12:26.588Z,35.28
2017-05-05T22:14:53.422Z,42.08
2017-05-05T22:17:20.270Z,40.58
2017-05-05T22:19:47.384Z,29.68
2017-05-05T22:22:14.240Z,33.28
2017-05-05T22:24:41.164Z,37.84
